Time;durP1;ratioP1;P1;durP2;ratioP2;P2;SDS_P1;SDS_P2;PMS_P1;PMS_P2;Temp;Humidity;BMP_temperature;BMP_pressure;BME280_temperature;BME280_humidity;BME280_pressure;Samples;Min_cycle;Max_cycle;Signal;HPM_P1;HPM_P2
2024/02/16 00:01:42;;;;;;;;;;;10.00;100.00;;;;;;5020552;28;20027;-71
2024/02/16 00:04:08;;;;;;;;;;;10.00;100.00;;;;;;5022947;28;19932;-71
2024/02/16 00:06:35;;;;;;;;;;;10.10;100.00;;;;;;5023869;28;19929;-71
2024/02/16 00:09:02;;;;;;;;;;;10.10;100.00;;;;;;5026596;28;20344;-71
2024/02/16 00:11:29;;;;;;;;;;;10.10;100.00;;;;;;5025857;28;19968;-71
2024/02/16 00:13:56;;;;;;;;;;;10.10;100.00;;;;;;5021187;28;19936;-72
2024/02/16 00:16:23;;;;;;;;;;;10.20;100.00;;;;;;5021715;28;19937;-71
2024/02/16 00:18:50;;;;;;;;;;;10.20;100.00;;;;;;5019712;28;20299;-72
2024/02/16 00:21:17;;;;;;;;;;;10.20;100.00;;;;;;5021395;28;19933;-72
2024/02/16 00:23:44;;;;;;;;;;;10.20;100.00;;;;;;5020152;28;20441;-71
2024/02/16 00:26:11;;;;;;;;;;;10.20;100.00;;;;;;5020488;28;19933;-72
2024/02/16 00:28:38;;;;;;;;;;;10.20;100.00;;;;;;5019868;28;19959;-71
2024/02/16 00:31:05;;;;;;;;;;;10.30;100.00;;;;;;5040728;28;20353;-72
2024/02/16 00:33:33;;;;;;;;;;;10.20;100.00;;;;;;5021985;28;19935;-71
2024/02/16 00:36:00;;;;;;;;;;;10.30;100.00;;;;;;5017736;28;20526;-71
2024/02/16 00:38:27;;;;;;;;;;;10.20;100.00;;;;;;5020422;28;19929;-72
2024/02/16 00:40:54;;;;;;;;;;;10.30;100.00;;;;;;5020479;28;19952;-72
2024/02/16 00:43:21;;;;;;;;;;;10.30;100.00;;;;;;5021041;28;20516;-71
2024/02/16 00:45:48;;;;;;;;;;;10.30;100.00;;;;;;5022064;28;19929;-71
2024/02/16 00:48:15;;;;;;;;;;;10.30;100.00;;;;;;5020570;28;19925;-72
2024/02/16 00:50:42;;;;;;;;;;;10.30;100.00;;;;;;5018823;28;19999;-71
2024/02/16 00:53:10;;;;;;;;;;;10.30;100.00;;;;;;5015744;28;19931;-71
2024/02/16 00:55:38;;;;;;;;;;;10.30;100.00;;;;;;5021157;28;19929;-71
2024/02/16 00:58:04;;;;;;;;;;;10.30;100.00;;;;;;5020376;28;20023;-71
2024/02/16 01:00:31;;;;;;;;;;;10.20;100.00;;;;;;5020893;28;20039;-71
2024/02/16 01:02:58;;;;;;;;;;;10.20;100.00;;;;;;5024187;28;19948;-72
2024/02/16 01:05:25;;;;;;;;;;;10.10;100.00;;;;;;5017524;28;20434;-71
2024/02/16 01:07:52;;;;;;;;;;;10.00;100.00;;;;;;5019791;28;19929;-70
2024/02/16 01:10:19;;;;;;;;;;;10.00;100.00;;;;;;5020465;28;19944;-70
2024/02/16 01:12:46;;;;;;;;;;;9.90;100.00;;;;;;5016643;28;20024;-71
2024/02/16 01:15:12;;;;;;;;;;;9.90;100.00;;;;;;5020972;28;20607;-71
2024/02/16 01:17:39;;;;;;;;;;;9.90;100.00;;;;;;5012344;28;19953;-71
2024/02/16 01:20:10;;;;;;;;;;;9.90;100.00;;;;;;5017723;28;20605;-71
2024/02/16 01:22:38;;;;;;;;;;;9.80;100.00;;;;;;5022217;28;19936;-71
2024/02/16 01:25:05;;;;;;;;;;;9.80;100.00;;;;;;5012769;28;19941;-71
2024/02/16 01:27:32;;;;;;;;;;;9.70;100.00;;;;;;5019915;28;19992;-70
2024/02/16 01:30:00;;;;;;;;;;;9.70;100.00;;;;;;5017176;28;19929;-71
2024/02/16 01:32:27;;;;;;;;;;;9.60;100.00;;;;;;5012427;28;19929;-71
2024/02/16 01:34:54;;;;;;;;;;;9.60;100.00;;;;;;5016622;28;19980;-70
2024/02/16 01:37:21;;;;;;;;;;;9.60;100.00;;;;;;5016974;28;20417;-71
2024/02/16 01:39:48;;;;;;;;;;;9.50;100.00;;;;;;5012779;28;19930;-70
2024/02/16 01:42:15;;;;;;;;;;;9.50;100.00;;;;;;5022510;28;19929;-71
2024/02/16 01:44:41;;;;;;;;;;;9.40;100.00;;;;;;5018960;28;19929;-70
2024/02/16 01:47:08;;;;;;;;;;;9.40;100.00;;;;;;5031184;28;19936;-70
2024/02/16 01:49:35;;;;;;;;;;;9.40;100.00;;;;;;5023715;28;19929;-71
2024/02/16 01:52:03;;;;;;;;;;;9.30;100.00;;;;;;5016488;28;20412;-71
2024/02/16 01:54:29;;;;;;;;;;;9.30;100.00;;;;;;5016935;28;19929;-71
2024/02/16 01:56:56;;;;;;;;;;;9.30;100.00;;;;;;5024348;28;19933;-71
2024/02/16 01:59:23;;;;;;;;;;;9.40;100.00;;;;;;5012223;28;19941;-71
2024/02/16 02:01:51;;;;;;;;;;;9.40;100.00;;;;;;5022062;28;19934;-71
2024/02/16 02:04:17;;;;;;;;;;;9.30;100.00;;;;;;5011445;28;19930;-71
2024/02/16 02:06:44;;;;;;;;;;;9.30;100.00;;;;;;5023608;28;19936;-71
2024/02/16 02:09:11;;;;;;;;;;;9.20;100.00;;;;;;5021084;28;20365;-71
2024/02/16 02:11:38;;;;;;;;;;;9.20;100.00;;;;;;5021628;28;19933;-71
2024/02/16 02:14:05;;;;;;;;;;;9.20;100.00;;;;;;5021361;28;19960;-71
2024/02/16 02:16:32;;;;;;;;;;;9.20;100.00;;;;;;5021806;28;20491;-71
2024/02/16 02:19:13;;;;;;;;;;;9.20;100.00;;;;;;5021415;28;20031;-71
2024/02/16 02:21:40;;;;;;;;;;;9.20;100.00;;;;;;5019974;28;19930;-71
2024/02/16 02:24:07;;;;;;;;;;;9.20;100.00;;;;;;5014417;28;19936;-71
2024/02/16 02:26:35;;;;;;;;;;;9.20;100.00;;;;;;5017814;28;19929;-71
2024/02/16 02:29:02;;;;;;;;;;;9.20;100.00;;;;;;5012437;28;19975;-71
2024/02/16 02:31:29;;;;;;;;;;;9.20;100.00;;;;;;5012127;28;19937;-71
2024/02/16 02:33:56;;;;;;;;;;;9.20;100.00;;;;;;5012353;28;19929;-71
2024/02/16 02:36:23;;;;;;;;;;;9.20;100.00;;;;;;5019032;28;20290;-71
2024/02/16 02:38:50;;;;;;;;;;;9.10;100.00;;;;;;5021666;28;19941;-71
2024/02/16 02:41:19;;;;;;;;;;;9.10;100.00;;;;;;5024295;28;20346;-71
2024/02/16 02:43:45;;;;;;;;;;;9.10;100.00;;;;;;5021135;28;19961;-71
2024/02/16 02:46:16;;;;;;;;;;;9.10;100.00;;;;;;5020671;28;19979;-71
2024/02/16 02:48:46;;;;;;;;;;;9.00;100.00;;;;;;5014421;28;19935;-71
2024/02/16 02:51:18;;;;;;;;;;;9.00;100.00;;;;;;5014481;28;19936;-71
2024/02/16 02:53:45;;;;;;;;;;;9.00;100.00;;;;;;5017608;28;19929;-71
2024/02/16 02:56:12;;;;;;;;;;;9.00;100.00;;;;;;5011987;28;19929;-70
2024/02/16 02:58:39;;;;;;;;;;;9.00;100.00;;;;;;5011903;28;19930;-71
2024/02/16 03:01:07;;;;;;;;;;;9.00;100.00;;;;;;5015626;28;20060;-71
2024/02/16 03:03:35;;;;;;;;;;;9.00;100.00;;;;;;5006554;28;19936;-71
2024/02/16 03:06:03;;;;;;;;;;;9.00;100.00;;;;;;5024903;28;19937;-71
2024/02/16 03:08:30;;;;;;;;;;;9.00;100.00;;;;;;5011687;28;19929;-71
2024/02/16 03:11:00;;;;;;;;;;;9.00;100.00;;;;;;5021792;28;19933;-71
2024/02/16 03:13:27;;;;;;;;;;;9.00;100.00;;;;;;5016865;28;19930;-71
2024/02/16 03:15:54;;;;;;;;;;;9.00;100.00;;;;;;5012848;28;19936;-71
2024/02/16 03:18:22;;;;;;;;;;;9.10;100.00;;;;;;5026577;23;19960;-79
2024/02/16 03:20:50;;;;;;;;;;;9.00;100.00;;;;;;5027818;28;20400;-80
2024/02/16 03:23:17;;;;;;;;;;;9.00;100.00;;;;;;5037601;28;19933;-80
2024/02/16 03:25:43;;;;;;;;;;;9.10;100.00;;;;;;5013891;28;19925;-80
2024/02/16 03:28:12;;;;;;;;;;;9.10;100.00;;;;;;5031663;28;19929;-80
2024/02/16 03:30:39;;;;;;;;;;;9.10;100.00;;;;;;5041205;28;19987;-80
2024/02/16 03:33:06;;;;;;;;;;;9.20;100.00;;;;;;5032381;28;19928;-79
2024/02/16 03:35:33;;;;;;;;;;;9.20;100.00;;;;;;5033590;28;19929;-80
2024/02/16 03:38:00;;;;;;;;;;;9.20;100.00;;;;;;5033892;28;20305;-80
2024/02/16 03:40:28;;;;;;;;;;;9.20;100.00;;;;;;5030205;28;20370;-79
2024/02/16 03:42:55;;;;;;;;;;;9.20;100.00;;;;;;5033591;28;20369;-80
2024/02/16 03:45:22;;;;;;;;;;;9.20;100.00;;;;;;5033674;28;19933;-81
2024/02/16 03:47:49;;;;;;;;;;;9.20;100.00;;;;;;5032273;28;19980;-79
2024/02/16 03:50:16;;;;;;;;;;;9.20;100.00;;;;;;5032951;28;19935;-79
2024/02/16 03:52:43;;;;;;;;;;;9.20;100.00;;;;;;5033292;28;19929;-80
2024/02/16 03:55:27;;;;;;;;;;;9.20;100.00;;;;;;5025693;23;19927;-71
2024/02/16 03:57:54;;;;;;;;;;;9.30;100.00;;;;;;5009602;28;20543;-71
2024/02/16 04:00:20;;;;;;;;;;;9.30;100.00;;;;;;5025394;28;20346;-71
2024/02/16 04:02:47;;;;;;;;;;;9.30;100.00;;;;;;5012266;28;19936;-71
2024/02/16 04:05:14;;;;;;;;;;;9.30;100.00;;;;;;5026488;28;19982;-71
2024/02/16 04:07:41;;;;;;;;;;;9.30;100.00;;;;;;5027416;28;19929;-71
2024/02/16 04:10:08;;;;;;;;;;;9.30;100.00;;;;;;5037958;28;19929;-80
2024/02/16 04:12:34;;;;;;;;;;;9.30;100.00;;;;;;5032438;28;19929;-79
2024/02/16 04:15:01;;;;;;;;;;;9.30;100.00;;;;;;5031470;28;19964;-71
2024/02/16 04:17:28;;;;;;;;;;;9.30;100.00;;;;;;5007005;28;20267;-71
2024/02/16 04:19:55;;;;;;;;;;;9.30;100.00;;;;;;5027046;28;19936;-79
2024/02/16 04:22:22;;;;;;;;;;;9.30;100.00;;;;;;5044439;23;19940;-71
2024/02/16 04:24:48;;;;;;;;;;;9.40;100.00;;;;;;5015953;28;19929;-71
2024/02/16 04:27:15;;;;;;;;;;;9.40;100.00;;;;;;5013399;28;19932;-72
2024/02/16 04:29:42;;;;;;;;;;;9.40;100.00;;;;;;5001820;28;19936;-71
2024/02/16 04:32:08;;;;;;;;;;;9.30;100.00;;;;;;5003556;28;20068;-72
2024/02/16 04:34:35;;;;;;;;;;;9.40;100.00;;;;;;5000079;28;19969;-72
2024/02/16 04:37:02;;;;;;;;;;;9.30;100.00;;;;;;5004415;28;19956;-71
2024/02/16 04:39:29;;;;;;;;;;;9.30;100.00;;;;;;5010754;28;19987;-72
2024/02/16 04:41:56;;;;;;;;;;;9.30;100.00;;;;;;5004007;28;19968;-71
2024/02/16 04:44:23;;;;;;;;;;;9.30;100.00;;;;;;5004286;28;19933;-71
2024/02/16 04:46:52;;;;;;;;;;;9.30;100.00;;;;;;5003223;28;19961;-72
2024/02/16 04:49:18;;;;;;;;;;;9.20;100.00;;;;;;4994070;28;19942;-71
2024/02/16 04:51:46;;;;;;;;;;;9.20;100.00;;;;;;5004482;28;20477;-71
2024/02/16 04:54:13;;;;;;;;;;;9.20;100.00;;;;;;5003598;28;19937;-71
2024/02/16 04:56:40;;;;;;;;;;;9.10;100.00;;;;;;5007753;28;19930;-71
2024/02/16 04:59:07;;;;;;;;;;;9.10;100.00;;;;;;5010757;28;20020;-72
2024/02/16 05:01:33;;;;;;;;;;;9.10;100.00;;;;;;4994418;28;20003;-71
2024/02/16 05:04:02;;;;;;;;;;;9.10;100.00;;;;;;5004221;28;19936;-71
2024/02/16 05:06:29;;;;;;;;;;;9.10;100.00;;;;;;4995426;28;19940;-71
2024/02/16 05:08:56;;;;;;;;;;;9.20;100.00;;;;;;5002108;28;20020;-71
2024/02/16 05:11:24;;;;;;;;;;;9.20;100.00;;;;;;4993541;28;19984;-71
2024/02/16 05:13:51;;;;;;;;;;;9.20;100.00;;;;;;5003583;28;20535;-71
2024/02/16 05:16:18;;;;;;;;;;;9.20;100.00;;;;;;4993992;28;19937;-72
2024/02/16 05:18:45;;;;;;;;;;;9.20;100.00;;;;;;5003412;28;19992;-72
2024/02/16 05:21:12;;;;;;;;;;;9.20;100.00;;;;;;5003579;28;19930;-72
2024/02/16 05:23:38;;;;;;;;;;;9.20;100.00;;;;;;5003440;28;19944;-72
2024/02/16 05:26:05;;;;;;;;;;;9.20;100.00;;;;;;4993344;28;20039;-72
2024/02/16 05:28:32;;;;;;;;;;;9.20;100.00;;;;;;5003169;28;19933;-72
2024/02/16 05:31:03;;;;;;;;;;;9.20;100.00;;;;;;5006589;28;20609;-72
2024/02/16 05:33:30;;;;;;;;;;;9.20;100.00;;;;;;4994630;28;20596;-71
2024/02/16 05:35:58;;;;;;;;;;;9.20;100.00;;;;;;5003389;28;20019;-72
2024/02/16 05:38:43;;;;;;;;;;;9.20;100.00;;;;;;5006657;28;20749;-72
2024/02/16 05:41:11;;;;;;;;;;;9.20;100.00;;;;;;5013038;28;20337;-71
2024/02/16 05:43:40;;;;;;;;;;;9.20;100.00;;;;;;5003567;28;19933;-71
2024/02/16 05:46:12;;;;;;;;;;;9.20;100.00;;;;;;5001143;28;19973;-71
2024/02/16 05:48:39;;;;;;;;;;;9.20;100.00;;;;;;5017170;28;19939;-70
2024/02/16 05:51:06;;;;;;;;;;;9.20;100.00;;;;;;5003770;28;19933;-70
2024/02/16 05:53:33;;;;;;;;;;;9.10;100.00;;;;;;5010469;28;19930;-74
2024/02/16 05:56:00;;;;;;;;;;;9.10;100.00;;;;;;5010424;28;19933;-69
2024/02/16 05:58:29;;;;;;;;;;;9.10;100.00;;;;;;5010006;28;19934;-69
2024/02/16 06:00:55;;;;;;;;;;;9.10;100.00;;;;;;5003395;28;19925;-69
2024/02/16 06:03:22;;;;;;;;;;;9.10;100.00;;;;;;5003161;28;19929;-67
2024/02/16 06:05:49;;;;;;;;;;;9.10;100.00;;;;;;5003349;28;19933;-67
2024/02/16 06:08:17;;;;;;;;;;;9.00;100.00;;;;;;5009623;28;20030;-67
2024/02/16 06:10:50;;;;;;;;;;;9.00;100.00;;;;;;5003338;28;19929;-67
2024/02/16 06:13:18;;;;;;;;;;;9.00;100.00;;;;;;5002947;28;20548;-66
2024/02/16 06:15:44;;;;;;;;;;;9.00;100.00;;;;;;4993096;28;19930;-68
2024/02/16 06:18:11;;;;;;;;;;;9.00;100.00;;;;;;5002383;28;19937;-68
2024/02/16 06:20:38;;;;;;;;;;;9.00;100.00;;;;;;4997268;28;19930;-70
2024/02/16 06:23:05;;;;;;;;;;;8.90;100.00;;;;;;5007529;28;20482;-69
2024/02/16 06:25:32;;;;;;;;;;;8.90;100.00;;;;;;5002990;28;20288;-69
2024/02/16 06:27:58;;;;;;;;;;;8.90;100.00;;;;;;5001245;28;20611;-69
2024/02/16 06:30:25;;;;;;;;;;;8.80;100.00;;;;;;5002091;28;20567;-69
2024/02/16 06:32:54;;;;;;;;;;;8.80;100.00;;;;;;5003067;28;20331;-68
2024/02/16 06:35:21;;;;;;;;;;;8.80;100.00;;;;;;5003338;28;19992;-69
2024/02/16 06:37:48;;;;;;;;;;;8.80;100.00;;;;;;5009712;28;20303;-69
2024/02/16 06:40:15;;;;;;;;;;;8.80;100.00;;;;;;5002640;28;19929;-69
2024/02/16 06:42:41;;;;;;;;;;;8.80;100.00;;;;;;5001068;28;19980;-69
2024/02/16 06:45:08;;;;;;;;;;;8.80;100.00;;;;;;5016810;28;19929;-69
2024/02/16 06:47:35;;;;;;;;;;;8.80;100.00;;;;;;5012499;28;19925;-69
2024/02/16 06:50:02;;;;;;;;;;;8.80;100.00;;;;;;5002421;28;19937;-69
2024/02/16 06:52:29;;;;;;;;;;;8.80;100.00;;;;;;4994166;28;20334;-69
2024/02/16 06:54:56;;;;;;;;;;;8.80;100.00;;;;;;5012090;28;19929;-69
2024/02/16 06:57:25;;;;;;;;;;;8.80;100.00;;;;;;5000858;28;19969;-69
2024/02/16 06:59:53;;;;;;;;;;;8.80;100.00;;;;;;5004690;28;20428;-69
2024/02/16 07:02:20;;;;;;;;;;;8.90;100.00;;;;;;5011846;28;19929;-69
2024/02/16 07:04:47;;;;;;;;;;;8.90;100.00;;;;;;5006222;28;20122;-69
2024/02/16 07:07:14;;;;;;;;;;;8.90;100.00;;;;;;5005870;28;20020;-69
2024/02/16 07:09:42;;;;;;;;;;;8.90;100.00;;;;;;5012981;28;19977;-69
2024/02/16 07:12:09;;;;;;;;;;;8.90;100.00;;;;;;5013228;28;19937;-69
2024/02/16 07:14:35;;;;;;;;;;;9.00;100.00;;;;;;5013266;28;19929;-69
2024/02/16 07:17:02;;;;;;;;;;;9.00;100.00;;;;;;5021411;28;19933;-69
2024/02/16 07:19:29;;;;;;;;;;;9.00;100.00;;;;;;4998019;28;19976;-69
2024/02/16 07:21:56;;;;;;;;;;;9.10;100.00;;;;;;5006133;28;19936;-69
2024/02/16 07:24:22;;;;;;;;;;;9.10;100.00;;;;;;5005619;28;19933;-69
2024/02/16 07:26:49;;;;;;;;;;;9.20;100.00;;;;;;5006136;28;19930;-69
2024/02/16 07:29:16;;;;;;;;;;;9.20;100.00;;;;;;5006003;28;19925;-69
2024/02/16 07:31:43;;;;;;;;;;;9.20;100.00;;;;;;5013017;28;20420;-69
2024/02/16 07:34:11;;;;;;;;;;;9.30;100.00;;;;;;5006234;28;19929;-69
2024/02/16 07:36:38;;;;;;;;;;;9.30;100.00;;;;;;5005889;28;19929;-69
2024/02/16 07:39:05;;;;;;;;;;;9.30;100.00;;;;;;5005548;28;20567;-69
2024/02/16 07:41:32;;;;;;;;;;;9.40;100.00;;;;;;5006120;28;19933;-69
2024/02/16 07:43:59;;;;;;;;;;;9.40;100.00;;;;;;5006233;28;19937;-69
2024/02/16 07:46:25;;;;;;;;;;;9.40;100.00;;;;;;4996306;28;19933;-69
2024/02/16 07:48:52;;;;;;;;;;;9.50;100.00;;;;;;4995989;28;20016;-69
2024/02/16 07:51:19;;;;;;;;;;;9.50;100.00;;;;;;5005982;28;20382;-69
2024/02/16 07:53:46;;;;;;;;;;;9.60;100.00;;;;;;5005141;28;19930;-69
2024/02/16 07:56:14;;;;;;;;;;;9.60;100.00;;;;;;5003485;28;19929;-69
2024/02/16 07:58:42;;;;;;;;;;;9.60;100.00;;;;;;5005483;28;19933;-69
2024/02/16 08:01:13;;;;;;;;;;;9.60;100.00;;;;;;5007632;28;19930;-69
2024/02/16 08:03:40;;;;;;;;;;;9.70;100.00;;;;;;5006812;28;20016;-69
2024/02/16 08:06:07;;;;;;;;;;;9.70;100.00;;;;;;5005019;28;19973;-69
2024/02/16 08:08:34;;;;;;;;;;;9.70;100.00;;;;;;5004538;28;19929;-69
2024/02/16 08:11:01;;;;;;;;;;;9.80;100.00;;;;;;5005146;28;19933;-69
2024/02/16 08:13:27;;;;;;;;;;;9.80;100.00;;;;;;5012146;28;20017;-69
2024/02/16 08:15:55;;;;;;;;;;;9.90;100.00;;;;;;5005026;28;19957;-69
2024/02/16 08:18:21;;;;;;;;;;;9.90;100.00;;;;;;5004268;28;19925;-69
2024/02/16 08:20:49;;;;;;;;;;;10.00;100.00;;;;;;5004721;28;19929;-68
2024/02/16 08:23:16;;;;;;;;;;;10.00;100.00;;;;;;5011575;28;20028;-69
2024/02/16 08:25:43;;;;;;;;;;;10.10;100.00;;;;;;5004222;28;19985;-69
2024/02/16 08:28:09;;;;;;;;;;;10.10;100.00;;;;;;5003881;28;20723;-70
2024/02/16 08:30:40;;;;;;;;;;;10.20;100.00;;;;;;5011325;28;19936;-70
2024/02/16 08:33:08;;;;;;;;;;;10.20;100.00;;;;;;5011712;28;19926;-70
2024/02/16 08:35:34;;;;;;;;;;;10.20;100.00;;;;;;5004624;28;19929;-70
2024/02/16 08:38:01;;;;;;;;;;;10.30;100.00;;;;;;4998580;28;19985;-70
2024/02/16 08:40:28;;;;;;;;;;;10.30;100.00;;;;;;4995408;28;19936;-70
2024/02/16 08:42:55;;;;;;;;;;;10.40;100.00;;;;;;5004872;28;19983;-70
2024/02/16 08:45:24;;;;;;;;;;;10.40;100.00;;;;;;5018997;28;19929;-70
2024/02/16 08:47:51;;;;;;;;;;;10.40;100.00;;;;;;5004961;28;19934;-70
2024/02/16 08:50:19;;;;;;;;;;;10.50;100.00;;;;;;5006447;28;20020;-70
2024/02/16 08:52:45;;;;;;;;;;;10.50;100.00;;;;;;5021910;28;20349;-70
2024/02/16 08:55:12;;;;;;;;;;;10.50;100.00;;;;;;4997102;28;19929;-70
2024/02/16 08:57:39;;;;;;;;;;;10.50;100.00;;;;;;5006479;28;19936;-70
2024/02/16 09:00:07;;;;;;;;;;;10.50;100.00;;;;;;5006544;28;19935;-69
2024/02/16 09:02:33;;;;;;;;;;;10.60;100.00;;;;;;5006426;28;20667;-69
2024/02/16 09:05:00;;;;;;;;;;;10.50;100.00;;;;;;5013557;28;19980;-70
2024/02/16 09:07:27;;;;;;;;;;;10.60;100.00;;;;;;5006582;28;19964;-70
2024/02/16 09:09:54;;;;;;;;;;;10.60;100.00;;;;;;5006647;28;19937;-69
2024/02/16 09:12:21;;;;;;;;;;;10.60;100.00;;;;;;5006538;28;19941;-69
2024/02/16 09:14:47;;;;;;;;;;;10.60;100.00;;;;;;5010480;28;19929;-69
2024/02/16 09:17:14;;;;;;;;;;;10.70;100.00;;;;;;5012956;28;19929;-69
2024/02/16 09:19:41;;;;;;;;;;;10.70;100.00;;;;;;5006145;28;19969;-69
2024/02/16 09:22:08;;;;;;;;;;;10.70;100.00;;;;;;5012222;28;19929;-69
2024/02/16 09:24:35;;;;;;;;;;;10.70;100.00;;;;;;5009587;28;19969;-69
2024/02/16 09:27:04;;;;;;;;;;;10.70;100.00;;;;;;5002447;28;19940;-69
2024/02/16 09:29:31;;;;;;;;;;;10.80;100.00;;;;;;5004425;28;19933;-69
2024/02/16 09:31:58;;;;;;;;;;;10.80;100.00;;;;;;5006539;28;20445;-68
2024/02/16 09:34:26;;;;;;;;;;;10.90;100.00;;;;;;5005786;28;20465;-68
2024/02/16 09:36:53;;;;;;;;;;;11.00;100.00;;;;;;5005899;28;19936;-68
2024/02/16 09:39:19;;;;;;;;;;;11.20;100.00;;;;;;5005776;28;20011;-69
2024/02/16 09:41:50;;;;;;;;;;;11.30;100.00;;;;;;4996268;28;19929;-69
2024/02/16 09:44:17;;;;;;;;;;;11.60;100.00;;;;;;5012182;28;20393;-70
2024/02/16 09:46:44;;;;;;;;;;;11.90;100.00;;;;;;5003131;28;20015;-69
2024/02/16 09:49:11;;;;;;;;;;;12.30;100.00;;;;;;5005751;28;19925;-69
2024/02/16 09:51:38;;;;;;;;;;;12.60;100.00;;;;;;5005886;28;20675;-69
2024/02/16 09:54:07;;;;;;;;;;;13.00;100.00;;;;;;5005187;28;19930;-69
2024/02/16 09:56:33;;;;;;;;;;;13.20;100.00;;;;;;5005350;28;19929;-69
2024/02/16 09:59:00;;;;;;;;;;;13.30;100.00;;;;;;5005374;28;20455;-69
2024/02/16 10:01:28;;;;;;;;;;;13.50;100.00;;;;;;5006082;28;19933;-69
2024/02/16 10:04:05;;;;;;;;;;;13.70;100.00;;;;;;5005262;28;19925;-69
2024/02/16 10:06:31;;;;;;;;;;;13.80;100.00;;;;;;4997615;28;19969;-69
2024/02/16 10:08:58;;;;;;;;;;;13.90;100.00;;;;;;5002325;28;19929;-69
2024/02/16 10:11:29;;;;;;;;;;;14.00;100.00;;;;;;5005229;28;19925;-69
2024/02/16 10:13:56;;;;;;;;;;;14.20;100.00;;;;;;5005699;28;19925;-69
2024/02/16 10:16:23;;;;;;;;;;;14.30;100.00;;;;;;5005574;28;19930;-69
2024/02/16 10:18:50;;;;;;;;;;;14.40;100.00;;;;;;5015001;28;19934;-69
2024/02/16 10:21:24;;;;;;;;;;;14.40;100.00;;;;;;5004867;28;20315;-69
2024/02/16 10:24:01;;;;;;;;;;;14.20;100.00;;;;;;4995783;28;19940;-69
2024/02/16 10:26:29;;;;;;;;;;;14.10;100.00;;;;;;5011949;28;20456;-69
2024/02/16 10:28:57;;;;;;;;;;;13.90;100.00;;;;;;5014321;28;20003;-69
2024/02/16 10:31:28;;;;;;;;;;;14.10;100.00;;;;;;5011902;28;19969;-69
2024/02/16 10:33:58;;;;;;;;;;;14.50;100.00;;;;;;5009151;28;19930;-69
2024/02/16 10:36:28;;;;;;;;;;;14.70;100.00;;;;;;5009374;28;19929;-69
2024/02/16 10:38:56;;;;;;;;;;;15.10;100.00;;;;;;5009289;28;19932;-69
2024/02/16 10:41:27;;;;;;;;;;;15.30;100.00;;;;;;5008751;28;19937;-69
2024/02/16 10:43:55;;;;;;;;;;;15.40;100.00;;;;;;5008966;28;19984;-69
2024/02/16 10:46:22;;;;;;;;;;;15.30;100.00;;;;;;5008956;28;19969;-69
2024/02/16 10:48:49;;;;;;;;;;;15.50;100.00;;;;;;5008804;28;19964;-69
2024/02/16 10:51:19;;;;;;;;;;;15.90;100.00;;;;;;5009026;28;19940;-69
2024/02/16 10:53:47;;;;;;;;;;;16.10;100.00;;;;;;5009357;28;19936;-69
2024/02/16 10:56:13;;;;;;;;;;;16.20;100.00;;;;;;5009341;28;19933;-69
2024/02/16 10:58:41;;;;;;;;;;;16.20;100.00;;;;;;5015790;28;19929;-69
2024/02/16 11:01:10;;;;;;;;;;;16.30;100.00;;;;;;5008420;28;20005;-69
2024/02/16 11:03:37;;;;;;;;;;;16.30;100.00;;;;;;5015995;28;19930;-70
2024/02/16 11:06:15;;;;;;;;;;;16.50;100.00;;;;;;5008685;28;20554;-70
2024/02/16 11:08:42;;;;;;;;;;;16.70;100.00;;;;;;5008517;28;19934;-70
2024/02/16 11:11:12;;;;;;;;;;;16.80;100.00;;;;;;5008263;28;20398;-70
2024/02/16 11:13:42;;;;;;;;;;;17.10;100.00;;;;;;5008643;28;20020;-70
2024/02/16 11:16:09;;;;;;;;;;;17.50;100.00;;;;;;5008783;28;19930;-70
2024/02/16 11:18:39;;;;;;;;;;;17.60;100.00;;;;;;5008490;28;19971;-69
2024/02/16 11:21:11;;;;;;;;;;;17.40;100.00;;;;;;5015312;28;19975;-70
2024/02/16 11:23:39;;;;;;;;;;;17.50;100.00;;;;;;5008556;28;19937;-69
2024/02/16 11:26:13;;;;;;;;;;;17.90;100.00;;;;;;5008273;28;19933;-70
2024/02/16 11:28:40;;;;;;;;;;;18.50;100.00;;;;;;5007955;28;19926;-70
2024/02/16 11:31:07;;;;;;;;;;;19.00;100.00;;;;;;5008212;28;19933;-70
2024/02/16 11:33:34;;;;;;;;;;;18.80;100.00;;;;;;5008144;28;19972;-70
2024/02/16 11:36:03;;;;;;;;;;;18.60;100.00;;;;;;5007778;28;19963;-70
2024/02/16 11:38:31;;;;;;;;;;;18.70;100.00;;;;;;5007765;28;19930;-70
2024/02/16 11:40:58;;;;;;;;;;;18.60;100.00;;;;;;5006914;28;20060;-70
2024/02/16 11:43:25;;;;;;;;;;;18.10;100.00;;;;;;5007351;28;19971;-70
2024/02/16 11:45:52;;;;;;;;;;;17.70;100.00;;;;;;5007932;28;19968;-70
2024/02/16 11:48:20;;;;;;;;;;;17.20;100.00;;;;;;5008017;28;19929;-70
2024/02/16 11:50:47;;;;;;;;;;;17.20;100.00;;;;;;5014769;28;19964;-70
2024/02/16 11:53:19;;;;;;;;;;;17.00;100.00;;;;;;5000300;28;19999;-70
2024/02/16 11:55:49;;;;;;;;;;;16.90;100.00;;;;;;5014507;28;19972;-70
2024/02/16 11:58:20;;;;;;;;;;;16.60;100.00;;;;;;5007567;28;19929;-70
2024/02/16 12:00:47;;;;;;;;;;;16.60;100.00;;;;;;5007768;28;19929;-70
2024/02/16 12:03:24;;;;;;;;;;;16.50;100.00;;;;;;5007902;28;19929;-70
2024/02/16 12:05:52;;;;;;;;;;;16.40;100.00;;;;;;5007399;28;19959;-70
2024/02/16 12:08:19;;;;;;;;;;;16.90;100.00;;;;;;5016740;28;20020;-70
2024/02/16 12:10:47;;;;;;;;;;;17.30;100.00;;;;;;5014036;28;19935;-70
2024/02/16 12:13:18;;;;;;;;;;;17.40;100.00;;;;;;5007436;28;20552;-70
2024/02/16 12:15:45;;;;;;;;;;;17.20;100.00;;;;;;5007518;28;19929;-70
2024/02/16 12:18:22;;;;;;;;;;;17.50;100.00;;;;;;5006699;28;19929;-70
2024/02/16 12:21:09;;;;;;;;;;;18.30;100.00;;;;;;5007896;28;19929;-70
2024/02/16 12:23:36;;;;;;;;;;;18.90;100.00;;;;;;5007279;28;20008;-70
2024/02/16 12:26:03;;;;;;;;;;;19.30;100.00;;;;;;5007057;28;19987;-70
2024/02/16 12:28:32;;;;;;;;;;;19.50;100.00;;;;;;5007163;28;20012;-70
2024/02/16 12:30:59;;;;;;;;;;;19.70;100.00;;;;;;5007037;28;19949;-70
2024/02/16 12:33:29;;;;;;;;;;;19.70;100.00;;;;;;5007189;28;20341;-70
2024/02/16 12:35:57;;;;;;;;;;;19.10;100.00;;;;;;5006962;28;20355;-70
2024/02/16 12:38:23;;;;;;;;;;;18.70;100.00;;;;;;5006994;28;19967;-70
2024/02/16 12:40:50;;;;;;;;;;;19.20;100.00;;;;;;4997447;28;19929;-70
2024/02/16 12:43:18;;;;;;;;;;;19.80;100.00;;;;;;5011884;28;20371;-70
2024/02/16 12:45:45;;;;;;;;;;;20.20;100.00;;;;;;5007420;28;19925;-70
2024/02/16 12:48:14;;;;;;;;;;;20.50;100.00;;;;;;4995622;28;20518;-70
2024/02/16 12:50:41;;;;;;;;;;;20.10;100.00;;;;;;4997661;28;19936;-70
2024/02/16 12:53:09;;;;;;;;;;;19.40;100.00;;;;;;4997409;28;19929;-70
2024/02/16 12:55:36;;;;;;;;;;;18.80;100.00;;;;;;5013088;28;19972;-70
2024/02/16 12:58:03;;;;;;;;;;;18.30;100.00;;;;;;5005356;28;19930;-70
2024/02/16 13:00:30;;;;;;;;;;;17.70;100.00;;;;;;5007061;28;19925;-70
2024/02/16 13:02:58;;;;;;;;;;;17.20;100.00;;;;;;5005749;28;21269;-70
2024/02/16 13:05:25;;;;;;;;;;;16.90;100.00;;;;;;4997144;28;19932;-70
2024/02/16 13:07:52;;;;;;;;;;;16.60;100.00;;;;;;4997215;28;19936;-69
2024/02/16 13:10:19;;;;;;;;;;;16.50;100.00;;;;;;5006759;28;19929;-70
2024/02/16 13:12:46;;;;;;;;;;;16.30;100.00;;;;;;5007174;28;19934;-69
2024/02/16 13:15:13;;;;;;;;;;;16.10;100.00;;;;;;5007093;28;19929;-70
2024/02/16 13:17:54;;;;;;;;;;;15.90;100.00;;;;;;5006468;28;19942;-71
2024/02/16 13:20:21;;;;;;;;;;;15.70;100.00;;;;;;5006272;28;20360;-71
2024/02/16 13:22:48;;;;;;;;;;;15.60;100.00;;;;;;5005499;28;19936;-71
2024/02/16 13:25:15;;;;;;;;;;;15.40;100.00;;;;;;5005050;28;20528;-71
2024/02/16 13:27:42;;;;;;;;;;;15.40;100.00;;;;;;5004954;28;19939;-71
2024/02/16 13:30:09;;;;;;;;;;;15.40;100.00;;;;;;5006460;28;19930;-70
2024/02/16 13:32:39;;;;;;;;;;;15.50;100.00;;;;;;5006716;28;20018;-71
2024/02/16 13:35:06;;;;;;;;;;;15.50;100.00;;;;;;5006546;28;19929;-71
2024/02/16 13:37:33;;;;;;;;;;;15.50;100.00;;;;;;5004705;28;20462;-71
2024/02/16 13:40:01;;;;;;;;;;;15.50;100.00;;;;;;5005196;28;20003;-70
2024/02/16 13:42:28;;;;;;;;;;;15.50;100.00;;;;;;5006128;28;19929;-71
2024/02/16 13:44:55;;;;;;;;;;;15.70;100.00;;;;;;5004860;28;19932;-71
2024/02/16 13:47:22;;;;;;;;;;;16.10;100.00;;;;;;5006102;28;20400;-71
2024/02/16 13:49:50;;;;;;;;;;;16.40;100.00;;;;;;5005966;28;19941;-71
2024/02/16 13:52:17;;;;;;;;;;;16.60;100.00;;;;;;5004682;28;20029;-71
2024/02/16 13:54:44;;;;;;;;;;;16.80;100.00;;;;;;5005814;28;19933;-71
2024/02/16 13:57:10;;;;;;;;;;;16.90;100.00;;;;;;5006273;28;19965;-71
2024/02/16 13:59:37;;;;;;;;;;;16.90;100.00;;;;;;4986305;28;19972;-71
2024/02/16 14:02:04;;;;;;;;;;;16.90;100.00;;;;;;4998250;28;19937;-71
2024/02/16 14:04:31;;;;;;;;;;;16.80;100.00;;;;;;5002908;28;20064;-71
2024/02/16 14:06:57;;;;;;;;;;;16.80;100.00;;;;;;4997237;28;19976;-71
2024/02/16 14:09:25;;;;;;;;;;;16.90;100.00;;;;;;5003524;28;20285;-70
2024/02/16 14:11:59;;;;;;;;;;;16.80;100.00;;;;;;4995315;28;19930;-70
2024/02/16 14:14:27;;;;;;;;;;;16.50;100.00;;;;;;5003158;28;19979;-70